sensor_id;sensor_type;location;lat;lon;timestamp;pressure;altitude;pressure_sealevel;temperature;humidity
42591;BME280;28218;53.342;-6.216;2023-04-02T00:01:25;102230.00;;;10.01;100.00
42591;BME280;28218;53.342;-6.216;2023-04-02T00:04:15;102232.41;;;10.04;100.00
42591;BME280;28218;53.342;-6.216;2023-04-02T00:06:53;102240.56;;;10.01;100.00
42591;BME280;28218;53.342;-6.216;2023-04-02T00:09:29;102242.22;;;10.02;100.00
42591;BME280;28218;53.342;-6.216;2023-04-02T00:12:15;102250.69;;;10.05;100.00
42591;BME280;28218;53.342;-6.216;2023-04-02T00:14:47;102259.19;;;10.09;100.00
42591;BME280;28218;53.342;-6.216;2023-04-02T00:17:17;102261.97;;;10.07;100.00
42591;BME280;28218;53.342;-6.216;2023-04-02T00:19:50;102262.66;;;10.09;100.00
42591;BME280;28218;53.342;-6.216;2023-04-02T00:22:23;102264.22;;;10.12;100.00
42591;BME280;28218;53.342;-6.216;2023-04-02T00:24:53;102263.34;;;10.11;100.00
42591;BME280;28218;53.342;-6.216;2023-04-02T00:27:23;102262.78;;;10.08;100.00
42591;BME280;28218;53.342;-6.216;2023-04-02T00:29:54;102265.44;;;10.08;100.00
42591;BME280;28218;53.342;-6.216;2023-04-02T00:32:24;102270.09;;;10.04;100.00
42591;BME280;28218;53.342;-6.216;2023-04-02T00:34:54;102261.63;;;10.01;100.00
42591;BME280;28218;53.342;-6.216;2023-04-02T00:37:27;102249.28;;;10.01;100.00
42591;BME280;28218;53.342;-6.216;2023-04-02T00:39:59;102253.63;;;10.02;100.00
42591;BME280;28218;53.342;-6.216;2023-04-02T00:42:33;102257.47;;;9.98;100.00
42591;BME280;28218;53.342;-6.216;2023-04-02T00:45:04;102275.75;;;9.99;100.00
42591;BME280;28218;53.342;-6.216;2023-04-02T00:47:36;102287.94;;;10.01;100.00
42591;BME280;28218;53.342;-6.216;2023-04-02T00:50:18;102291.56;;;9.99;100.00
42591;BME280;28218;53.342;-6.216;2023-04-02T00:52:49;102291.56;;;9.99;100.00
42591;BME280;28218;53.342;-6.216;2023-04-02T00:55:21;102295.41;;;9.95;100.00
42591;BME280;28218;53.342;-6.216;2023-04-02T00:57:59;102302.84;;;9.90;100.00
42591;BME280;28218;53.342;-6.216;2023-04-02T01:00:30;102299.50;;;9.88;100.00
42591;BME280;28218;53.342;-6.216;2023-04-02T01:03:25;102294.09;;;9.90;100.00
42591;BME280;28218;53.342;-6.216;2023-04-02T01:05:59;102291.34;;;9.91;100.00
42591;BME280;28218;53.342;-6.216;2023-04-02T01:08:51;102287.41;;;9.86;100.00
42591;BME280;28218;53.342;-6.216;2023-04-02T01:11:36;102286.13;;;9.80;100.00
42591;BME280;28218;53.342;-6.216;2023-04-02T01:14:17;102294.84;;;9.81;100.00
42591;BME280;28218;53.342;-6.216;2023-04-02T01:16:51;102305.50;;;9.79;100.00
42591;BME280;28218;53.342;-6.216;2023-04-02T01:20:08;102312.69;;;9.77;100.00
42591;BME280;28218;53.342;-6.216;2023-04-02T01:22:45;102301.31;;;9.77;100.00
42591;BME280;28218;53.342;-6.216;2023-04-02T01:25:21;102299.53;;;9.77;100.00
42591;BME280;28218;53.342;-6.216;2023-04-02T01:27:54;102297.63;;;9.79;100.00
42591;BME280;28218;53.342;-6.216;2023-04-02T01:30:25;102307.03;;;9.82;100.00
42591;BME280;28218;53.342;-6.216;2023-04-02T01:32:54;102303.59;;;9.81;100.00
42591;BME280;28218;53.342;-6.216;2023-04-02T01:35:22;102302.06;;;9.79;100.00
42591;BME280;28218;53.342;-6.216;2023-04-02T01:37:57;102303.81;;;9.78;100.00
42591;BME280;28218;53.342;-6.216;2023-04-02T01:40:35;102300.34;;;9.78;100.00
42591;BME280;28218;53.342;-6.216;2023-04-02T01:43:15;102311.16;;;9.75;100.00
42591;BME280;28218;53.342;-6.216;2023-04-02T01:45:48;102315.59;;;9.74;100.00
42591;BME280;28218;53.342;-6.216;2023-04-02T01:48:18;102302.41;;;9.74;100.00
42591;BME280;28218;53.342;-6.216;2023-04-02T01:50:49;102297.72;;;9.78;100.00
42591;BME280;28218;53.342;-6.216;2023-04-02T01:53:23;102304.69;;;9.79;100.00
42591;BME280;28218;53.342;-6.216;2023-04-02T01:55:53;102312.44;;;9.80;100.00
42591;BME280;28218;53.342;-6.216;2023-04-02T01:58:23;102311.47;;;9.81;100.00
42591;BME280;28218;53.342;-6.216;2023-04-02T02:00:56;102331.56;;;9.82;100.00
42591;BME280;28218;53.342;-6.216;2023-04-02T02:03:27;102345.56;;;9.83;100.00
42591;BME280;28218;53.342;-6.216;2023-04-02T02:05:57;102348.81;;;9.86;100.00
42591;BME280;28218;53.342;-6.216;2023-04-02T02:08:32;102341.63;;;9.88;100.00
42591;BME280;28218;53.342;-6.216;2023-04-02T02:11:02;102345.19;;;9.87;100.00
42591;BME280;28218;53.342;-6.216;2023-04-02T02:13:30;102349.41;;;9.90;100.00
42591;BME280;28218;53.342;-6.216;2023-04-02T02:16:02;102357.88;;;9.93;100.00
42591;BME280;28218;53.342;-6.216;2023-04-02T02:18:31;102369.34;;;9.92;100.00
42591;BME280;28218;53.342;-6.216;2023-04-02T02:21:03;102365.78;;;9.93;100.00
42591;BME280;28218;53.342;-6.216;2023-04-02T02:23:34;102364.97;;;9.93;100.00
42591;BME280;28218;53.342;-6.216;2023-04-02T02:26:04;102381.59;;;9.93;100.00
42591;BME280;28218;53.342;-6.216;2023-04-02T02:28:36;102380.16;;;9.89;100.00
42591;BME280;28218;53.342;-6.216;2023-04-02T02:31:12;102395.81;;;9.91;100.00
42591;BME280;28218;53.342;-6.216;2023-04-02T02:33:48;102403.50;;;9.94;100.00
42591;BME280;28218;53.342;-6.216;2023-04-02T02:36:23;102398.22;;;9.94;100.00
42591;BME280;28218;53.342;-6.216;2023-04-02T02:38:56;102396.44;;;9.94;100.00
42591;BME280;28218;53.342;-6.216;2023-04-02T02:41:29;102409.59;;;9.94;100.00
42591;BME280;28218;53.342;-6.216;2023-04-02T02:44:05;102406.94;;;9.94;100.00
42591;BME280;28218;53.342;-6.216;2023-04-02T02:46:42;102408.84;;;9.92;100.00
42591;BME280;28218;53.342;-6.216;2023-04-02T02:49:14;102418.47;;;9.93;100.00
42591;BME280;28218;53.342;-6.216;2023-04-02T02:51:46;102411.16;;;9.86;100.00
42591;BME280;28218;53.342;-6.216;2023-04-02T02:54:17;102415.81;;;9.82;100.00
42591;BME280;28218;53.342;-6.216;2023-04-02T02:56:48;102428.88;;;9.84;100.00
42591;BME280;28218;53.342;-6.216;2023-04-02T02:59:20;102423.72;;;9.82;100.00
42591;BME280;28218;53.342;-6.216;2023-04-02T03:01:51;102426.34;;;9.82;100.00
42591;BME280;28218;53.342;-6.216;2023-04-02T03:04:20;102424.69;;;9.81;100.00
42591;BME280;28218;53.342;-6.216;2023-04-02T03:06:51;102432.44;;;9.83;100.00
42591;BME280;28218;53.342;-6.216;2023-04-02T03:09:27;102437.00;;;9.81;100.00
42591;BME280;28218;53.342;-6.216;2023-04-02T03:12:01;102439.50;;;9.82;100.00
42591;BME280;28218;53.342;-6.216;2023-04-02T03:14:37;102441.44;;;9.80;100.00
42591;BME280;28218;53.342;-6.216;2023-04-02T03:17:14;102438.94;;;9.79;100.00
42591;BME280;28218;53.342;-6.216;2023-04-02T03:19:46;102439.88;;;9.78;100.00
42591;BME280;28218;53.342;-6.216;2023-04-02T03:22:15;102448.75;;;9.77;100.00
42591;BME280;28218;53.342;-6.216;2023-04-02T03:24:52;102464.31;;;9.80;100.00
42591;BME280;28218;53.342;-6.216;2023-04-02T03:27:25;102454.75;;;9.79;100.00
42591;BME280;28218;53.342;-6.216;2023-04-02T03:30:04;102455.56;;;9.79;100.00
42591;BME280;28218;53.342;-6.216;2023-04-02T03:32:39;102454.84;;;9.77;100.00
42591;BME280;28218;53.342;-6.216;2023-04-02T03:35:18;102461.19;;;9.75;100.00
42591;BME280;28218;53.342;-6.216;2023-04-02T03:37:54;102470.91;;;9.74;100.00
42591;BME280;28218;53.342;-6.216;2023-04-02T03:40:28;102475.19;;;9.75;100.00
42591;BME280;28218;53.342;-6.216;2023-04-02T03:43:01;102475.28;;;9.73;100.00
42591;BME280;28218;53.342;-6.216;2023-04-02T03:45:35;102477.09;;;9.73;100.00
42591;BME280;28218;53.342;-6.216;2023-04-02T03:48:11;102471.72;;;9.75;100.00
42591;BME280;28218;53.342;-6.216;2023-04-02T03:50:44;102472.91;;;9.70;100.00
42591;BME280;28218;53.342;-6.216;2023-04-02T03:53:15;102464.88;;;9.72;100.00
42591;BME280;28218;53.342;-6.216;2023-04-02T03:55:43;102465.84;;;9.71;100.00
42591;BME280;28218;53.342;-6.216;2023-04-02T03:58:16;102472.78;;;9.72;100.00
42591;BME280;28218;53.342;-6.216;2023-04-02T04:00:52;102481.66;;;9.71;100.00
42591;BME280;28218;53.342;-6.216;2023-04-02T04:03:27;102486.91;;;9.71;100.00
42591;BME280;28218;53.342;-6.216;2023-04-02T04:05:58;102474.09;;;9.66;100.00
42591;BME280;28218;53.342;-6.216;2023-04-02T04:08:32;102476.13;;;9.63;100.00
42591;BME280;28218;53.342;-6.216;2023-04-02T04:11:09;102474.47;;;9.62;100.00
42591;BME280;28218;53.342;-6.216;2023-04-02T04:13:44;102473.84;;;9.58;100.00
42591;BME280;28218;53.342;-6.216;2023-04-02T04:16:15;102471.34;;;9.57;100.00
42591;BME280;28218;53.342;-6.216;2023-04-02T04:18:52;102474.00;;;9.57;100.00
42591;BME280;28218;53.342;-6.216;2023-04-02T04:21:29;102470.53;;;9.56;100.00
42591;BME280;28218;53.342;-6.216;2023-04-02T04:24:04;102473.16;;;9.56;100.00
42591;BME280;28218;53.342;-6.216;2023-04-02T04:26:41;102472.06;;;9.59;100.00
42591;BME280;28218;53.342;-6.216;2023-04-02T04:29:29;102468.50;;;9.60;100.00
42591;BME280;28218;53.342;-6.216;2023-04-02T04:32:13;102471.00;;;9.61;100.00
42591;BME280;28218;53.342;-6.216;2023-04-02T04:34:46;102470.25;;;9.59;100.00
42591;BME280;28218;53.342;-6.216;2023-04-02T04:37:23;102472.31;;;9.56;100.00
42591;BME280;28218;53.342;-6.216;2023-04-02T04:39:56;102478.28;;;9.58;100.00
42591;BME280;28218;53.342;-6.216;2023-04-02T04:42:30;102481.66;;;9.60;100.00
42591;BME280;28218;53.342;-6.216;2023-04-02T04:45:07;102483.31;;;9.61;100.00
42591;BME280;28218;53.342;-6.216;2023-04-02T04:47:39;102484.88;;;9.63;100.00
42591;BME280;28218;53.342;-6.216;2023-04-02T04:50:15;102493.03;;;9.60;100.00
42591;BME280;28218;53.342;-6.216;2023-04-02T04:52:47;102485.97;;;9.61;100.00
42591;BME280;28218;53.342;-6.216;2023-04-02T04:55:27;102489.78;;;9.57;100.00
42591;BME280;28218;53.342;-6.216;2023-04-02T04:57:59;102488.09;;;9.56;100.00
42591;BME280;28218;53.342;-6.216;2023-04-02T05:00:46;102489.91;;;9.55;100.00
42591;BME280;28218;53.342;-6.216;2023-04-02T05:03:22;102489.78;;;9.57;100.00
42591;BME280;28218;53.342;-6.216;2023-04-02T05:06:02;102501.50;;;9.53;100.00
42591;BME280;28218;53.342;-6.216;2023-04-02T05:08:41;102502.44;;;9.52;100.00
42591;BME280;28218;53.342;-6.216;2023-04-02T05:11:14;102510.22;;;9.53;100.00
42591;BME280;28218;53.342;-6.216;2023-04-02T05:13:50;102518.94;;;9.54;100.00
42591;BME280;28218;53.342;-6.216;2023-04-02T05:16:22;102525.19;;;9.53;100.00
42591;BME280;28218;53.342;-6.216;2023-04-02T05:18:56;102526.00;;;9.53;100.00
42591;BME280;28218;53.342;-6.216;2023-04-02T05:21:32;102525.03;;;9.54;100.00
42591;BME280;28218;53.342;-6.216;2023-04-02T05:24:26;102524.00;;;9.57;100.00
42591;BME280;28218;53.342;-6.216;2023-04-02T05:27:00;102530.22;;;9.56;100.00
42591;BME280;28218;53.342;-6.216;2023-04-02T05:29:33;102535.34;;;9.57;100.00
42591;BME280;28218;53.342;-6.216;2023-04-02T05:32:08;102539.78;;;9.57;100.00
42591;BME280;28218;53.342;-6.216;2023-04-02T05:34:41;102532.09;;;9.54;100.00
42591;BME280;28218;53.342;-6.216;2023-04-02T05:37:16;102539.91;;;9.55;100.00
42591;BME280;28218;53.342;-6.216;2023-04-02T05:39:49;102543.38;;;9.56;100.00
42591;BME280;28218;53.342;-6.216;2023-04-02T05:42:19;102546.44;;;9.50;100.00
42591;BME280;28218;53.342;-6.216;2023-04-02T05:45:02;102550.78;;;9.51;100.00
42591;BME280;28218;53.342;-6.216;2023-04-02T05:47:32;102551.00;;;9.47;100.00
42591;BME280;28218;53.342;-6.216;2023-04-02T05:50:26;102554.81;;;9.43;100.00
42591;BME280;28218;53.342;-6.216;2023-04-02T05:53:03;102564.38;;;9.44;100.00
42591;BME280;28218;53.342;-6.216;2023-04-02T05:55:38;102567.00;;;9.44;100.00
42591;BME280;28218;53.342;-6.216;2023-04-02T05:58:16;102567.00;;;9.44;100.00
42591;BME280;28218;53.342;-6.216;2023-04-02T06:01:13;102560.78;;;9.45;100.00
42591;BME280;28218;53.342;-6.216;2023-04-02T06:03:49;102573.94;;;9.45;100.00
42591;BME280;28218;53.342;-6.216;2023-04-02T06:06:24;102578.28;;;9.46;100.00
42591;BME280;28218;53.342;-6.216;2023-04-02T06:08:58;102578.16;;;9.48;100.00
42591;BME280;28218;53.342;-6.216;2023-04-02T06:11:31;102574.69;;;9.47;100.00
42591;BME280;28218;53.342;-6.216;2023-04-02T06:13:59;102579.13;;;9.47;100.00
42591;BME280;28218;53.342;-6.216;2023-04-02T06:16:29;102581.84;;;9.45;100.00
42591;BME280;28218;53.342;-6.216;2023-04-02T06:18:59;102593.22;;;9.46;100.00
42591;BME280;28218;53.342;-6.216;2023-04-02T06:21:27;102602.19;;;9.43;100.00
42591;BME280;28218;53.342;-6.216;2023-04-02T06:24:00;102600.25;;;9.45;100.00
42591;BME280;28218;53.342;-6.216;2023-04-02T06:26:32;102608.16;;;9.45;100.00
42591;BME280;28218;53.342;-6.216;2023-04-02T06:29:04;102608.41;;;9.42;100.00
42591;BME280;28218;53.342;-6.216;2023-04-02T06:31:37;102610.06;;;9.43;100.00
42591;BME280;28218;53.342;-6.216;2023-04-02T06:34:14;102615.94;;;9.47;100.00
42591;BME280;28218;53.342;-6.216;2023-04-02T06:36:43;102616.78;;;9.47;100.00
42591;BME280;28218;53.342;-6.216;2023-04-02T06:39:17;102618.69;;;9.45;100.00
42591;BME280;28218;53.342;-6.216;2023-04-02T06:41:45;102621.94;;;9.49;100.00
42591;BME280;28218;53.342;-6.216;2023-04-02T06:44:16;102619.06;;;9.52;100.00
42591;BME280;28218;53.342;-6.216;2023-04-02T06:46:47;102622.31;;;9.56;100.00
42591;BME280;28218;53.342;-6.216;2023-04-02T06:49:22;102622.69;;;9.62;100.00
42591;BME280;28218;53.342;-6.216;2023-04-02T06:51:53;102633.84;;;9.66;100.00
42591;BME280;28218;53.342;-6.216;2023-04-02T06:54:23;102637.31;;;9.66;100.00
42591;BME280;28218;53.342;-6.216;2023-04-02T06:56:52;102635.38;;;9.68;100.00
42591;BME280;28218;53.342;-6.216;2023-04-02T06:59:22;102638.13;;;9.67;100.00
42591;BME280;28218;53.342;-6.216;2023-04-02T07:01:53;102642.44;;;9.68;100.00
42591;BME280;28218;53.342;-6.216;2023-04-02T07:04:23;102643.28;;;9.68;100.00
42591;BME280;28218;53.342;-6.216;2023-04-02T07:06:52;102643.88;;;9.72;100.00
42591;BME280;28218;53.342;-6.216;2023-04-02T07:09:20;102653.25;;;9.76;100.00
42591;BME280;28218;53.342;-6.216;2023-04-02T07:11:50;102661.84;;;9.78;100.00
42591;BME280;28218;53.342;-6.216;2023-04-02T07:14:18;102656.38;;;9.81;100.00
42591;BME280;28218;53.342;-6.216;2023-04-02T07:16:46;102659.00;;;9.81;100.00
42591;BME280;28218;53.342;-6.216;2023-04-02T07:19:17;102655.19;;;9.85;100.00
42591;BME280;28218;53.342;-6.216;2023-04-02T07:21:46;102662.84;;;9.88;100.00
42591;BME280;28218;53.342;-6.216;2023-04-02T07:24:14;102652.19;;;9.90;100.00
42591;BME280;28218;53.342;-6.216;2023-04-02T07:26:42;102661.78;;;9.91;100.00
42591;BME280;28218;53.342;-6.216;2023-04-02T07:29:15;102664.41;;;9.91;100.00
42591;BME280;28218;53.342;-6.216;2023-04-02T07:31:43;102671.00;;;9.96;100.00
42591;BME280;28218;53.342;-6.216;2023-04-02T07:34:12;102673.28;;;10.01;100.00
42591;BME280;28218;53.342;-6.216;2023-04-02T07:36:40;102677.50;;;10.04;100.00
42591;BME280;28218;53.342;-6.216;2023-04-02T07:39:08;102684.06;;;10.09;100.00
42591;BME280;28218;53.342;-6.216;2023-04-02T07:41:50;102679.03;;;10.06;100.00
42591;BME280;28218;53.342;-6.216;2023-04-02T07:44:20;102680.59;;;10.09;100.00
42591;BME280;28218;53.342;-6.216;2023-04-02T07:46:48;102684.69;;;10.13;100.00
42591;BME280;28218;53.342;-6.216;2023-04-02T07:49:16;102680.03;;;10.16;100.00
42591;BME280;28218;53.342;-6.216;2023-04-02T07:51:44;102685.88;;;10.20;100.00
42591;BME280;28218;53.342;-6.216;2023-04-02T07:54:13;102691.66;;;10.25;100.00
42591;BME280;28218;53.342;-6.216;2023-04-02T07:56:41;102693.59;;;10.34;100.00
42591;BME280;28218;53.342;-6.216;2023-04-02T07:59:09;102693.16;;;10.40;100.00
42591;BME280;28218;53.342;-6.216;2023-04-02T08:01:39;102699.59;;;10.47;100.00
42591;BME280;28218;53.342;-6.216;2023-04-02T08:04:16;102697.44;;;10.53;100.00
42591;BME280;28218;53.342;-6.216;2023-04-02T08:06:46;102708.47;;;10.58;100.00
42591;BME280;28218;53.342;-6.216;2023-04-02T08:09:15;102706.78;;;10.57;100.00
42591;BME280;28218;53.342;-6.216;2023-04-02T08:11:43;102709.69;;;10.65;100.00
42591;BME280;28218;53.342;-6.216;2023-04-02T08:14:12;102713.75;;;10.69;100.00
42591;BME280;28218;53.342;-6.216;2023-04-02T08:16:47;102704.41;;;10.76;100.00
42591;BME280;28218;53.342;-6.216;2023-04-02T08:19:16;102702.97;;;10.83;100.00
42591;BME280;28218;53.342;-6.216;2023-04-02T08:21:45;102709.91;;;10.84;100.00
42591;BME280;28218;53.342;-6.216;2023-04-02T08:24:16;102716.16;;;10.83;100.00
42591;BME280;28218;53.342;-6.216;2023-04-02T08:26:45;102719.84;;;10.81;100.00
42591;BME280;28218;53.342;-6.216;2023-04-02T08:29:13;102725.97;;;10.81;100.00
42591;BME280;28218;53.342;-6.216;2023-04-02T08:31:42;102715.41;;;10.81;100.00
42591;BME280;28218;53.342;-6.216;2023-04-02T08:34:11;102706.56;;;10.82;100.00
42591;BME280;28218;53.342;-6.216;2023-04-02T08:36:42;102699.59;;;10.81;100.00
42591;BME280;28218;53.342;-6.216;2023-04-02T08:39:12;102694.91;;;10.85;100.00
42591;BME280;28218;53.342;-6.216;2023-04-02T08:41:44;102693.59;;;10.90;100.00
42591;BME280;28218;53.342;-6.216;2023-04-02T08:44:22;102694.78;;;10.97;100.00
42591;BME280;28218;53.342;-6.216;2023-04-02T08:46:59;102694.28;;;11.04;100.00
42591;BME280;28218;53.342;-6.216;2023-04-02T08:49:36;102699.19;;;11.08;100.00
42591;BME280;28218;53.342;-6.216;2023-04-02T08:52:18;102708.31;;;11.15;100.00
42591;BME280;28218;53.342;-6.216;2023-04-02T08:54:48;102706.72;;;11.24;100.00
42591;BME280;28218;53.342;-6.216;2023-04-02T08:57:23;102713.19;;;11.31;100.00
42591;BME280;28218;53.342;-6.216;2023-04-02T08:59:58;102719.16;;;11.44;100.00
42591;BME280;28218;53.342;-6.216;2023-04-02T09:02:31;102723.16;;;11.60;100.00
42591;BME280;28218;53.342;-6.216;2023-04-02T09:05:06;102722.72;;;11.75;100.00
42591;BME280;28218;53.342;-6.216;2023-04-02T09:07:35;102721.75;;;11.88;100.00
42591;BME280;28218;53.342;-6.216;2023-04-02T09:10:03;102728.47;;;11.92;100.00
42591;BME280;28218;53.342;-6.216;2023-04-02T09:12:33;102734.38;;;11.84;100.00
42591;BME280;28218;53.342;-6.216;2023-04-02T09:15:15;102734.81;;;11.89;100.00
42591;BME280;28218;53.342;-6.216;2023-04-02T09:17:46;102733.38;;;11.96;100.00
42591;BME280;28218;53.342;-6.216;2023-04-02T09:20:23;102736.22;;;12.05;100.00
42591;BME280;28218;53.342;-6.216;2023-04-02T09:22:54;102738.91;;;12.14;100.00
42591;BME280;28218;53.342;-6.216;2023-04-02T09:25:26;102747.84;;;12.23;100.00
42591;BME280;28218;53.342;-6.216;2023-04-02T09:28:00;102746.38;;;12.30;100.00
42591;BME280;28218;53.342;-6.216;2023-04-02T09:30:39;102756.50;;;12.25;100.00
42591;BME280;28218;53.342;-6.216;2023-04-02T09:33:11;102758.63;;;12.31;100.00
42591;BME280;28218;53.342;-6.216;2023-04-02T09:35:54;102749.03;;;12.30;100.00
42591;BME280;28218;53.342;-6.216;2023-04-02T09:38:24;102755.38;;;12.27;100.00
42591;BME280;28218;53.342;-6.216;2023-04-02T09:40:59;102761.78;;;12.25;100.00
42591;BME280;28218;53.342;-6.216;2023-04-02T09:43:29;102767.78;;;12.27;100.00
42591;BME280;28218;53.342;-6.216;2023-04-02T09:45:59;102771.84;;;12.31;100.00
42591;BME280;28218;53.342;-6.216;2023-04-02T09:48:29;102777.84;;;12.33;100.00
42591;BME280;28218;53.342;-6.216;2023-04-02T09:51:11;102787.09;;;12.27;100.00
42591;BME280;28218;53.342;-6.216;2023-04-02T09:53:41;102788.69;;;12.30;100.00
42591;BME280;28218;53.342;-6.216;2023-04-02T09:56:13;102792.41;;;12.27;100.00
42591;BME280;28218;53.342;-6.216;2023-04-02T09:58:43;102796.16;;;12.25;100.00
42591;BME280;28218;53.342;-6.216;2023-04-02T10:01:26;102799.69;;;12.14;100.00
42591;BME280;28218;53.342;-6.216;2023-04-02T10:03:55;102799.31;;;12.19;100.00
42591;BME280;28218;53.342;-6.216;2023-04-02T10:06:27;102806.28;;;12.20;100.00
42591;BME280;28218;53.342;-6.216;2023-04-02T10:08:56;102807.69;;;12.24;100.00
42591;BME280;28218;53.342;-6.216;2023-04-02T10:11:28;102795.31;;;12.24;100.00
42591;BME280;28218;53.342;-6.216;2023-04-02T10:14:18;102805.06;;;12.24;100.00
42591;BME280;28218;53.342;-6.216;2023-04-02T10:16:50;102807.69;;;12.24;100.00
42591;BME280;28218;53.342;-6.216;2023-04-02T10:19:25;102813.28;;;12.31;100.00
42591;BME280;28218;53.342;-6.216;2023-04-02T10:21:58;102809.19;;;12.38;100.00
42591;BME280;28218;53.342;-6.216;2023-04-02T10:24:27;102808.22;;;12.39;100.00
42591;BME280;28218;53.342;-6.216;2023-04-02T10:27:02;102810.47;;;12.43;100.00
42591;BME280;28218;53.342;-6.216;2023-04-02T10:29:53;102811.69;;;12.39;100.00
42591;BME280;28218;53.342;-6.216;2023-04-02T10:32:31;102821.28;;;12.40;100.00
42591;BME280;28218;53.342;-6.216;2023-04-02T10:35:03;102822.97;;;12.41;100.00
42591;BME280;28218;53.342;-6.216;2023-04-02T10:38:02;102826.44;;;12.42;100.00
42591;BME280;28218;53.342;-6.216;2023-04-02T10:40:34;102833.16;;;12.46;100.00
42591;BME280;28218;53.342;-6.216;2023-04-02T10:43:29;102826.38;;;12.32;100.00
42591;BME280;28218;53.342;-6.216;2023-04-02T10:46:04;102833.38;;;12.33;100.00
42591;BME280;28218;53.342;-6.216;2023-04-02T10:48:39;102835.28;;;12.31;100.00
42591;BME280;28218;53.342;-6.216;2023-04-02T10:51:20;102840.69;;;12.30;100.00
42591;BME280;28218;53.342;-6.216;2023-04-02T10:53:57;102840.69;;;12.30;100.00
42591;BME280;28218;53.342;-6.216;2023-04-02T10:56:29;102844.09;;;12.20;100.00
42591;BME280;28218;53.342;-6.216;2023-04-02T10:59:17;102849.31;;;12.11;100.00
42591;BME280;28218;53.342;-6.216;2023-04-02T11:01:47;102853.19;;;12.07;100.00
42591;BME280;28218;53.342;-6.216;2023-04-02T11:04:21;102857.25;;;11.99;100.00
42591;BME280;28218;53.342;-6.216;2023-04-02T11:06:55;102861.72;;;11.99;100.00
42591;BME280;28218;53.342;-6.216;2023-04-02T11:09:42;102864.63;;;11.96;100.00
42591;BME280;28218;53.342;-6.216;2023-04-02T11:12:19;102858.50;;;11.95;100.00
42591;BME280;28218;53.342;-6.216;2023-04-02T11:14:49;102856.56;;;11.97;100.00
42591;BME280;28218;53.342;-6.216;2023-04-02T11:17:18;102857.03;;;12.02;100.00
42591;BME280;28218;53.342;-6.216;2023-04-02T11:19:46;102861.34;;;12.03;100.00
42591;BME280;28218;53.342;-6.216;2023-04-02T11:22:16;102855.56;;;12.10;100.00
42591;BME280;28218;53.342;-6.216;2023-04-02T11:24:47;102852.09;;;12.09;100.00
42591;BME280;28218;53.342;-6.216;2023-04-02T11:27:20;102858.69;;;12.03;100.00
42591;BME280;28218;53.342;-6.216;2023-04-02T11:29:52;102860.59;;;12.13;100.00
42591;BME280;28218;53.342;-6.216;2023-04-02T11:32:27;102858.09;;;12.11;100.00
42591;BME280;28218;53.342;-6.216;2023-04-02T11:35:26;102862.84;;;12.17;100.00
42591;BME280;28218;53.342;-6.216;2023-04-02T11:44:24;102857.69;;;12.16;100.00
42591;BME280;28218;53.342;-6.216;2023-04-02T11:47:16;102862.09;;;12.26;100.00
42591;BME280;28218;53.342;-6.216;2023-04-02T11:50:00;102861.72;;;12.31;100.00
42591;BME280;28218;53.342;-6.216;2023-04-02T11:52:32;102867.47;;;12.36;100.00
42591;BME280;28218;53.342;-6.216;2023-04-02T12:06:54;102873.41;;;12.49;100.00
42591;BME280;28218;53.342;-6.216;2023-04-02T12:09:28;102877.41;;;12.44;100.00
42591;BME280;28218;53.342;-6.216;2023-04-02T12:11:59;102882.34;;;12.37;100.00
42591;BME280;28218;53.342;-6.216;2023-04-02T12:14:43;102890.88;;;12.41;100.00
42591;BME280;28218;53.342;-6.216;2023-04-02T12:17:23;102891.22;;;12.47;100.00
42591;BME280;28218;53.342;-6.216;2023-04-02T12:19:55;102895.75;;;12.57;100.00
42591;BME280;28218;53.342;-6.216;2023-04-02T12:22:27;102891.28;;;12.57;100.00
42591;BME280;28218;53.342;-6.216;2023-04-02T12:24:59;102886.50;;;12.72;100.00
42591;BME280;28218;53.342;-6.216;2023-04-02T12:27:28;102894.66;;;12.80;100.00
42591;BME280;28218;53.342;-6.216;2023-04-02T12:30:11;102895.44;;;13.01;100.00
42591;BME280;28218;53.342;-6.216;2023-04-02T12:32:43;102900.00;;;13.20;100.00
42591;BME280;28218;53.342;-6.216;2023-04-02T12:35:26;102912.81;;;13.36;100.00
42591;BME280;28218;53.342;-6.216;2023-04-02T12:37:55;102904.50;;;13.50;100.00
42591;BME280;28218;53.342;-6.216;2023-04-02T12:40:24;102911.31;;;13.53;100.00
42591;BME280;28218;53.342;-6.216;2023-04-02T12:42:53;102909.47;;;13.44;100.00
42591;BME280;28218;53.342;-6.216;2023-04-02T12:45:23;102910.34;;;13.54;100.00
42591;BME280;28218;53.342;-6.216;2023-04-02T12:47:57;102926.00;;;13.67;100.00
42591;BME280;28218;53.342;-6.216;2023-04-02T12:50:27;102927.31;;;13.82;100.00
42591;BME280;28218;53.342;-6.216;2023-04-02T12:52:56;102925.81;;;13.99;100.00
42591;BME280;28218;53.342;-6.216;2023-04-02T12:55:26;102925.56;;;14.21;100.00
42591;BME280;28218;53.342;-6.216;2023-04-02T12:57:55;102921.94;;;14.32;100.00
42591;BME280;28218;53.342;-6.216;2023-04-02T13:00:31;102934.22;;;14.33;100.00
42591;BME280;28218;53.342;-6.216;2023-04-02T13:03:16;102940.66;;;14.40;100.00
42591;BME280;28218;53.342;-6.216;2023-04-02T13:05:49;102940.38;;;14.43;100.00
42591;BME280;28218;53.342;-6.216;2023-04-02T13:08:21;102947.63;;;14.41;100.00
42591;BME280;28218;53.342;-6.216;2023-04-02T13:10:53;102953.81;;;14.51;100.00
42591;BME280;28218;53.342;-6.216;2023-04-02T13:13:26;102955.91;;;14.48;100.00
42591;BME280;28218;53.342;-6.216;2023-04-02T13:16:01;102960.66;;;14.54;100.00
42591;BME280;28218;53.342;-6.216;2023-04-02T13:18:31;102967.47;;;14.66;100.00
42591;BME280;28218;53.342;-6.216;2023-04-02T13:21:00;102968.88;;;14.70;100.00
42591;BME280;28218;53.342;-6.216;2023-04-02T13:23:34;102964.41;;;14.71;100.00
42591;BME280;28218;53.342;-6.216;2023-04-02T13:26:10;102970.13;;;14.66;100.00
42591;BME280;28218;53.342;-6.216;2023-04-02T13:28:49;102962.75;;;14.60;100.00